sensor_id;sensor_type;location;lat;lon;timestamp;temperature;humidity
66726;HTU21D;53638;51.062;5.804;2024-02-26T00:02:03;8.88;-6.00
66726;HTU21D;53638;51.062;5.804;2024-02-26T00:04:29;8.90;-6.00
66726;HTU21D;53638;51.062;5.804;2024-02-26T00:06:55;8.91;-6.00
66726;HTU21D;53638;51.062;5.804;2024-02-26T00:09:21;8.93;-6.00
66726;HTU21D;53638;51.062;5.804;2024-02-26T00:11:47;8.93;-6.00
66726;HTU21D;53638;51.062;5.804;2024-02-26T00:14:13;8.93;-6.00
66726;HTU21D;53638;51.062;5.804;2024-02-26T00:16:40;8.96;-6.00
66726;HTU21D;53638;51.062;5.804;2024-02-26T00:19:07;8.98;-6.00
66726;HTU21D;53638;51.062;5.804;2024-02-26T00:21:33;8.97;-6.00
66726;HTU21D;53638;51.062;5.804;2024-02-26T00:23:59;8.97;-6.00
66726;HTU21D;53638;51.062;5.804;2024-02-26T00:26:25;8.91;-6.00
66726;HTU21D;53638;51.062;5.804;2024-02-26T00:28:51;8.90;-6.00
66726;HTU21D;53638;51.062;5.804;2024-02-26T00:31:17;8.90;-6.00
66726;HTU21D;53638;51.062;5.804;2024-02-26T00:33:42;8.89;-6.00
66726;HTU21D;53638;51.062;5.804;2024-02-26T00:36:09;8.87;-6.00
66726;HTU21D;53638;51.062;5.804;2024-02-26T00:38:35;8.79;-6.00
66726;HTU21D;53638;51.062;5.804;2024-02-26T00:41:01;8.77;-6.00
66726;HTU21D;53638;51.062;5.804;2024-02-26T00:43:27;8.78;-6.00
66726;HTU21D;53638;51.062;5.804;2024-02-26T00:45:53;8.79;-6.00
66726;HTU21D;53638;51.062;5.804;2024-02-26T00:48:19;8.79;-6.00
66726;HTU21D;53638;51.062;5.804;2024-02-26T00:50:44;8.79;-6.00
66726;HTU21D;53638;51.062;5.804;2024-02-26T00:53:10;8.75;-6.00
66726;HTU21D;53638;51.062;5.804;2024-02-26T00:55:36;8.71;-6.00
66726;HTU21D;53638;51.062;5.804;2024-02-26T00:58:02;8.66;-6.00
66726;HTU21D;53638;51.062;5.804;2024-02-26T01:00:27;8.64;-6.00
66726;HTU21D;53638;51.062;5.804;2024-02-26T01:02:53;8.58;-6.00
66726;HTU21D;53638;51.062;5.804;2024-02-26T01:05:19;8.52;-6.00
66726;HTU21D;53638;51.062;5.804;2024-02-26T01:07:45;8.50;-6.00
66726;HTU21D;53638;51.062;5.804;2024-02-26T01:10:11;8.50;-6.00
66726;HTU21D;53638;51.062;5.804;2024-02-26T01:12:37;8.52;-6.00
66726;HTU21D;53638;51.062;5.804;2024-02-26T01:15:03;8.51;-6.00
66726;HTU21D;53638;51.062;5.804;2024-02-26T01:17:29;8.52;-6.00
66726;HTU21D;53638;51.062;5.804;2024-02-26T01:19:55;8.58;-6.00
66726;HTU21D;53638;51.062;5.804;2024-02-26T01:22:21;8.60;-6.00
66726;HTU21D;53638;51.062;5.804;2024-02-26T01:24:47;8.59;-6.00
66726;HTU21D;53638;51.062;5.804;2024-02-26T01:27:13;8.57;-6.00
66726;HTU21D;53638;51.062;5.804;2024-02-26T01:29:40;8.56;-6.00
66726;HTU21D;53638;51.062;5.804;2024-02-26T01:32:06;8.55;-6.00
66726;HTU21D;53638;51.062;5.804;2024-02-26T01:34:32;8.48;-6.00
66726;HTU21D;53638;51.062;5.804;2024-02-26T01:36:58;8.46;-6.00
66726;HTU21D;53638;51.062;5.804;2024-02-26T01:39:24;8.44;-6.00
66726;HTU21D;53638;51.062;5.804;2024-02-26T01:41:50;8.39;-6.00
66726;HTU21D;53638;51.062;5.804;2024-02-26T01:44:15;8.36;-6.00
66726;HTU21D;53638;51.062;5.804;2024-02-26T01:46:42;8.33;-6.00
66726;HTU21D;53638;51.062;5.804;2024-02-26T01:49:11;8.30;-6.00
66726;HTU21D;53638;51.062;5.804;2024-02-26T01:51:39;8.27;-6.00
66726;HTU21D;53638;51.062;5.804;2024-02-26T01:54:08;8.24;-6.00
66726;HTU21D;53638;51.062;5.804;2024-02-26T01:56:35;8.17;-6.00
66726;HTU21D;53638;51.062;5.804;2024-02-26T01:59:02;8.11;-6.00
66726;HTU21D;53638;51.062;5.804;2024-02-26T02:01:30;8.13;-6.00
66726;HTU21D;53638;51.062;5.804;2024-02-26T02:03:58;8.11;-6.00
66726;HTU21D;53638;51.062;5.804;2024-02-26T02:06:25;8.12;-6.00
66726;HTU21D;53638;51.062;5.804;2024-02-26T02:08:52;8.06;-6.00
66726;HTU21D;53638;51.062;5.804;2024-02-26T02:11:19;8.03;-6.00
66726;HTU21D;53638;51.062;5.804;2024-02-26T02:13:44;8.02;-6.00
66726;HTU21D;53638;51.062;5.804;2024-02-26T02:16:10;8.07;-6.00
66726;HTU21D;53638;51.062;5.804;2024-02-26T02:18:36;8.06;-6.00
66726;HTU21D;53638;51.062;5.804;2024-02-26T02:21:03;8.04;-6.00
66726;HTU21D;53638;51.062;5.804;2024-02-26T02:23:29;8.02;-6.00
66726;HTU21D;53638;51.062;5.804;2024-02-26T02:25:56;8.04;-6.00
66726;HTU21D;53638;51.062;5.804;2024-02-26T02:28:26;8.01;-6.00
66726;HTU21D;53638;51.062;5.804;2024-02-26T02:30:53;7.99;-6.00
66726;HTU21D;53638;51.062;5.804;2024-02-26T02:33:20;7.92;-6.00
66726;HTU21D;53638;51.062;5.804;2024-02-26T02:35:48;7.94;-6.00
66726;HTU21D;53638;51.062;5.804;2024-02-26T02:38:14;7.93;-6.00
66726;HTU21D;53638;51.062;5.804;2024-02-26T02:40:39;7.93;-6.00
66726;HTU21D;53638;51.062;5.804;2024-02-26T02:43:05;7.91;-6.00
66726;HTU21D;53638;51.062;5.804;2024-02-26T02:45:31;7.94;-6.00
66726;HTU21D;53638;51.062;5.804;2024-02-26T02:47:57;7.96;-6.00
66726;HTU21D;53638;51.062;5.804;2024-02-26T02:50:23;7.93;-6.00
66726;HTU21D;53638;51.062;5.804;2024-02-26T02:52:49;7.89;-6.00
66726;HTU21D;53638;51.062;5.804;2024-02-26T02:55:16;7.87;-6.00
66726;HTU21D;53638;51.062;5.804;2024-02-26T02:57:42;7.87;-6.00
66726;HTU21D;53638;51.062;5.804;2024-02-26T03:00:10;7.84;-6.00
66726;HTU21D;53638;51.062;5.804;2024-02-26T03:02:36;7.83;-6.00
66726;HTU21D;53638;51.062;5.804;2024-02-26T03:05:04;7.79;-6.00
66726;HTU21D;53638;51.062;5.804;2024-02-26T03:07:30;7.82;-6.00
66726;HTU21D;53638;51.062;5.804;2024-02-26T03:09:59;7.84;-6.00
66726;HTU21D;53638;51.062;5.804;2024-02-26T03:12:25;7.84;-6.00
66726;HTU21D;53638;51.062;5.804;2024-02-26T03:14:53;7.82;-6.00
66726;HTU21D;53638;51.062;5.804;2024-02-26T03:17:20;7.77;-6.00
66726;HTU21D;53638;51.062;5.804;2024-02-26T03:19:46;7.74;-6.00
66726;HTU21D;53638;51.062;5.804;2024-02-26T03:22:13;7.79;-6.00
66726;HTU21D;53638;51.062;5.804;2024-02-26T03:24:39;7.83;-6.00
66726;HTU21D;53638;51.062;5.804;2024-02-26T03:27:05;7.85;-6.00
66726;HTU21D;53638;51.062;5.804;2024-02-26T03:29:35;7.89;-6.00
66726;HTU21D;53638;51.062;5.804;2024-02-26T03:32:02;7.86;-6.00
66726;HTU21D;53638;51.062;5.804;2024-02-26T03:34:28;7.85;-6.00
66726;HTU21D;53638;51.062;5.804;2024-02-26T03:36:59;7.88;-6.00
66726;HTU21D;53638;51.062;5.804;2024-02-26T03:39:26;7.92;-6.00
66726;HTU21D;53638;51.062;5.804;2024-02-26T03:41:52;7.90;-6.00
66726;HTU21D;53638;51.062;5.804;2024-02-26T03:44:22;7.91;-6.00
66726;HTU21D;53638;51.062;5.804;2024-02-26T03:46:48;7.89;-6.00
66726;HTU21D;53638;51.062;5.804;2024-02-26T03:49:14;7.85;-6.00
66726;HTU21D;53638;51.062;5.804;2024-02-26T03:51:40;7.90;-6.00
66726;HTU21D;53638;51.062;5.804;2024-02-26T03:54:06;7.90;-6.00
66726;HTU21D;53638;51.062;5.804;2024-02-26T03:56:32;7.84;-6.00
66726;HTU21D;53638;51.062;5.804;2024-02-26T03:58:59;7.84;-6.00
66726;HTU21D;53638;51.062;5.804;2024-02-26T04:01:27;7.79;-6.00
66726;HTU21D;53638;51.062;5.804;2024-02-26T04:03:54;7.78;-6.00
66726;HTU21D;53638;51.062;5.804;2024-02-26T04:06:20;7.83;-6.00
66726;HTU21D;53638;51.062;5.804;2024-02-26T04:08:47;7.79;-6.00
66726;HTU21D;53638;51.062;5.804;2024-02-26T04:11:13;7.76;-6.00
66726;HTU21D;53638;51.062;5.804;2024-02-26T04:13:43;7.79;-6.00
66726;HTU21D;53638;51.062;5.804;2024-02-26T04:16:11;7.75;-6.00
66726;HTU21D;53638;51.062;5.804;2024-02-26T04:18:37;7.72;-6.00
66726;HTU21D;53638;51.062;5.804;2024-02-26T04:21:04;7.75;-6.00
66726;HTU21D;53638;51.062;5.804;2024-02-26T04:23:32;7.74;-6.00
66726;HTU21D;53638;51.062;5.804;2024-02-26T04:25:58;7.77;-6.00
66726;HTU21D;53638;51.062;5.804;2024-02-26T04:28:24;7.78;-6.00
66726;HTU21D;53638;51.062;5.804;2024-02-26T04:30:55;7.79;-6.00
66726;HTU21D;53638;51.062;5.804;2024-02-26T04:33:21;7.81;-6.00
66726;HTU21D;53638;51.062;5.804;2024-02-26T04:35:47;7.83;-6.00
66726;HTU21D;53638;51.062;5.804;2024-02-26T04:38:31;7.82;-6.00
66726;HTU21D;53638;51.062;5.804;2024-02-26T04:40:57;7.75;-6.00
66726;HTU21D;53638;51.062;5.804;2024-02-26T04:43:23;7.76;-6.00
66726;HTU21D;53638;51.062;5.804;2024-02-26T04:45:49;7.84;-6.00
66726;HTU21D;53638;51.062;5.804;2024-02-26T04:48:14;7.89;-6.00
66726;HTU21D;53638;51.062;5.804;2024-02-26T04:50:40;7.88;-6.00
66726;HTU21D;53638;51.062;5.804;2024-02-26T04:53:07;7.91;-6.00
66726;HTU21D;53638;51.062;5.804;2024-02-26T04:55:40;7.91;-6.00
66726;HTU21D;53638;51.062;5.804;2024-02-26T04:58:06;7.87;-6.00
66726;HTU21D;53638;51.062;5.804;2024-02-26T05:00:32;7.88;-6.00
66726;HTU21D;53638;51.062;5.804;2024-02-26T05:02:58;7.88;-6.00
66726;HTU21D;53638;51.062;5.804;2024-02-26T05:05:24;7.94;-6.00
66726;HTU21D;53638;51.062;5.804;2024-02-26T05:07:49;7.99;-6.00
66726;HTU21D;53638;51.062;5.804;2024-02-26T05:10:41;8.01;-6.00
66726;HTU21D;53638;51.062;5.804;2024-02-26T05:13:24;7.99;-6.00
66726;HTU21D;53638;51.062;5.804;2024-02-26T05:15:51;8.00;-6.00
66726;HTU21D;53638;51.062;5.804;2024-02-26T05:18:18;8.01;-6.00
66726;HTU21D;53638;51.062;5.804;2024-02-26T05:20:44;8.05;-6.00
66726;HTU21D;53638;51.062;5.804;2024-02-26T05:23:10;8.05;-6.00
66726;HTU21D;53638;51.062;5.804;2024-02-26T05:25:36;8.06;-6.00
66726;HTU21D;53638;51.062;5.804;2024-02-26T05:28:02;8.00;-6.00
66726;HTU21D;53638;51.062;5.804;2024-02-26T05:30:28;7.98;-6.00
66726;HTU21D;53638;51.062;5.804;2024-02-26T05:32:55;7.94;-6.00
66726;HTU21D;53638;51.062;5.804;2024-02-26T05:35:21;7.87;-6.00
66726;HTU21D;53638;51.062;5.804;2024-02-26T05:37:46;7.84;-6.00
66726;HTU21D;53638;51.062;5.804;2024-02-26T05:40:13;7.85;-6.00
66726;HTU21D;53638;51.062;5.804;2024-02-26T05:42:39;7.86;-6.00
66726;HTU21D;53638;51.062;5.804;2024-02-26T05:45:06;7.87;-6.00
66726;HTU21D;53638;51.062;5.804;2024-02-26T05:47:33;7.84;-6.00
66726;HTU21D;53638;51.062;5.804;2024-02-26T05:49:59;7.83;-6.00
66726;HTU21D;53638;51.062;5.804;2024-02-26T05:52:27;7.85;-6.00
66726;HTU21D;53638;51.062;5.804;2024-02-26T05:54:55;7.79;-6.00
66726;HTU21D;53638;51.062;5.804;2024-02-26T05:57:21;7.78;-6.00
66726;HTU21D;53638;51.062;5.804;2024-02-26T05:59:47;7.72;-6.00
66726;HTU21D;53638;51.062;5.804;2024-02-26T06:02:13;7.68;-6.00
66726;HTU21D;53638;51.062;5.804;2024-02-26T06:04:39;7.67;-6.00
66726;HTU21D;53638;51.062;5.804;2024-02-26T06:07:05;7.68;-6.00
66726;HTU21D;53638;51.062;5.804;2024-02-26T06:09:31;7.64;-6.00
66726;HTU21D;53638;51.062;5.804;2024-02-26T06:11:57;7.62;-6.00
66726;HTU21D;53638;51.062;5.804;2024-02-26T06:14:23;7.60;-6.00
66726;HTU21D;53638;51.062;5.804;2024-02-26T06:16:50;7.63;-6.00
66726;HTU21D;53638;51.062;5.804;2024-02-26T06:19:16;7.64;-6.00
66726;HTU21D;53638;51.062;5.804;2024-02-26T06:21:45;7.69;-6.00
66726;HTU21D;53638;51.062;5.804;2024-02-26T06:24:17;7.64;-6.00
66726;HTU21D;53638;51.062;5.804;2024-02-26T06:26:43;7.64;-6.00
66726;HTU21D;53638;51.062;5.804;2024-02-26T06:29:09;7.56;-6.00
66726;HTU21D;53638;51.062;5.804;2024-02-26T06:31:38;7.55;-6.00
66726;HTU21D;53638;51.062;5.804;2024-02-26T06:34:08;7.47;-6.00
66726;HTU21D;53638;51.062;5.804;2024-02-26T06:37:02;7.47;-6.00
66726;HTU21D;53638;51.062;5.804;2024-02-26T06:40:39;7.40;-6.00
66726;HTU21D;53638;51.062;5.804;2024-02-26T06:44:44;7.35;-6.00
66726;HTU21D;53638;51.062;5.804;2024-02-26T14:30:29;8.76;-6.00
66726;HTU21D;53638;51.062;5.804;2024-02-26T14:43:38;8.73;-6.00
66726;HTU21D;53638;51.062;5.804;2024-02-26T14:57:37;8.85;-6.00
66726;HTU21D;53638;51.062;5.804;2024-02-26T15:14:23;8.62;-6.00
66726;HTU21D;53638;51.062;5.804;2024-02-26T15:22:37;8.56;-6.00
66726;HTU21D;53638;51.062;5.804;2024-02-26T16:02:21;8.42;-6.00
66726;HTU21D;53638;51.062;5.804;2024-02-26T16:24:41;8.15;-6.00
66726;HTU21D;53638;51.062;5.804;2024-02-26T16:35:19;8.08;-6.00
